Time;durP1;ratioP1;P1;durP2;ratioP2;P2;SDS_P1;SDS_P2;PMS_P1;PMS_P2;Temp;Humidity;BMP_temperature;BMP_pressure;BME280_temperature;BME280_humidity;BME280_pressure;Samples;Min_cycle;Max_cycle;Signal;HPM_P1;HPM_P2
2023/06/27 00:01:22;;;;;;;0.80;0.70;;;;;;;;;;5043608;28;20530;-74
2023/06/27 00:03:51;;;;;;;0.70;0.70;;;;;;;;;;5030461;28;20471;-76
2023/06/27 00:06:20;;;;;;;0.70;0.60;;;;;;;;;;5040506;28;20429;-75
2023/06/27 00:08:46;;;;;;;0.70;0.60;;;;;;;;;;5041172;28;20462;-74
2023/06/27 00:11:13;;;;;;;0.80;0.70;;;;;;;;;;5043930;28;20436;-75
2023/06/27 00:13:41;;;;;;;0.80;0.77;;;;;;;;;;5039809;28;20452;-75
2023/06/27 00:16:12;;;;;;;0.80;0.80;;;;;;;;;;5021507;28;20806;-75
2023/06/27 00:18:39;;;;;;;0.80;0.70;;;;;;;;;;5038375;28;20530;-75
2023/06/27 00:21:06;;;;;;;0.70;0.70;;;;;;;;;;5038221;28;20491;-75
2023/06/27 00:23:33;;;;;;;0.73;0.67;;;;;;;;;;5049013;28;21014;-75
2023/06/27 00:26:00;;;;;;;0.80;0.70;;;;;;;;;;5044132;28;20510;-75
2023/06/27 00:28:27;;;;;;;0.80;0.70;;;;;;;;;;5038222;28;20818;-76
2023/06/27 00:30:55;;;;;;;0.70;0.63;;;;;;;;;;5038355;28;20468;-75
2023/06/27 00:33:23;;;;;;;0.90;0.90;;;;;;;;;;5027861;28;20998;-76
2023/06/27 00:35:50;;;;;;;0.80;0.70;;;;;;;;;;5045208;28;20433;-74
2023/06/27 00:38:16;;;;;;;0.80;0.60;;;;;;;;;;5050529;28;21116;-75
2023/06/27 00:40:43;;;;;;;0.70;0.70;;;;;;;;;;5048639;28;20516;-74
2023/06/27 00:43:10;;;;;;;1.03;0.93;;;;;;;;;;5045204;28;20559;-75
2023/06/27 00:45:36;;;;;;;0.70;0.70;;;;;;;;;;5026846;28;20449;-75
2023/06/27 00:48:03;;;;;;;0.90;0.90;;;;;;;;;;5045552;28;20483;-76
2023/06/27 00:50:31;;;;;;;0.80;0.70;;;;;;;;;;5053398;28;20444;-76
2023/06/27 00:53:00;;;;;;;0.70;0.70;;;;;;;;;;5048761;28;20484;-75
2023/06/27 00:55:28;;;;;;;0.70;0.60;;;;;;;;;;5042999;28;20451;-75
2023/06/27 00:57:55;;;;;;;0.70;0.70;;;;;;;;;;5047558;28;20472;-74
2023/06/27 01:00:22;;;;;;;0.90;0.90;;;;;;;;;;5048415;28;20494;-75
2023/06/27 01:02:49;;;;;;;0.70;0.60;;;;;;;;;;5049896;28;20932;-75
2023/06/27 01:05:17;;;;;;;0.80;0.77;;;;;;;;;;5050182;28;20925;-76
2023/06/27 01:07:48;;;;;;;0.70;0.70;;;;;;;;;;5060464;28;20468;-75
2023/06/27 01:10:18;;;;;;;0.70;0.70;;;;;;;;;;5045869;28;20463;-76
2023/06/27 01:12:48;;;;;;;0.80;0.80;;;;;;;;;;5027769;28;21088;-75
2023/06/27 01:15:17;;;;;;;0.80;0.70;;;;;;;;;;5043876;28;20939;-75
2023/06/27 01:17:44;;;;;;;0.80;0.80;;;;;;;;;;5047199;28;20996;-75
2023/06/27 01:20:12;;;;;;;0.70;0.70;;;;;;;;;;5051416;28;20449;-77
2023/06/27 01:22:41;;;;;;;0.80;0.80;;;;;;;;;;5052464;28;20464;-75
2023/06/27 01:25:11;;;;;;;0.70;0.60;;;;;;;;;;5033450;28;20606;-75
2023/06/27 01:27:38;;;;;;;0.80;0.80;;;;;;;;;;5055133;28;20484;-75
2023/06/27 01:30:05;;;;;;;0.70;0.60;;;;;;;;;;5049872;28;20793;-77
2023/06/27 01:32:34;;;;;;;0.80;0.73;;;;;;;;;;5049833;28;20447;-78
2023/06/27 01:35:04;;;;;;;0.83;0.83;;;;;;;;;;5051321;28;20436;-75
2023/06/27 01:37:35;;;;;;;0.70;0.70;;;;;;;;;;5053686;28;20483;-75
2023/06/27 01:40:06;;;;;;;0.70;0.60;;;;;;;;;;5047631;28;20443;-75
2023/06/27 01:42:37;;;;;;;0.70;0.70;;;;;;;;;;5048504;28;20442;-77
2023/06/27 01:45:04;;;;;;;0.80;0.70;;;;;;;;;;5051392;28;20450;-75
2023/06/27 01:47:32;;;;;;;0.70;0.70;;;;;;;;;;5049182;28;20433;-76
2023/06/27 01:49:59;;;;;;;1.30;1.20;;;;;;;;;;5052717;28;20457;-74
2023/06/27 01:52:25;;;;;;;0.70;0.60;;;;;;;;;;5049988;28;21002;-76
2023/06/27 01:54:52;;;;;;;0.70;0.60;;;;;;;;;;5044924;28;20477;-75
2023/06/27 01:57:18;;;;;;;4.50;1.13;;;;;;;;;;5036473;28;20479;-75
2023/06/27 01:59:46;;;;;;;0.70;0.70;;;;;;;;;;5049509;28;20467;-75
2023/06/27 02:02:13;;;;;;;0.70;0.60;;;;;;;;;;5034536;28;20489;-74
2023/06/27 02:04:40;;;;;;;0.80;0.70;;;;;;;;;;5046165;28;20804;-76
2023/06/27 02:07:06;;;;;;;0.80;0.70;;;;;;;;;;5046861;28;20551;-75
2023/06/27 02:09:33;;;;;;;0.70;0.70;;;;;;;;;;5044144;28;20539;-74
2023/06/27 02:11:59;;;;;;;0.80;0.70;;;;;;;;;;5050071;28;20479;-75
2023/06/27 02:14:26;;;;;;;0.70;0.70;;;;;;;;;;5028302;28;20448;-75
2023/06/27 02:16:54;;;;;;;0.70;0.70;;;;;;;;;;5046044;28;20472;-75
2023/06/27 02:19:20;;;;;;;0.70;0.70;;;;;;;;;;5032148;28;20458;-75
2023/06/27 02:21:47;;;;;;;0.80;0.70;;;;;;;;;;5038820;28;20902;-76
2023/06/27 02:24:14;;;;;;;0.70;0.70;;;;;;;;;;5045298;28;20439;-75
2023/06/27 02:26:43;;;;;;;0.80;0.70;;;;;;;;;;5045510;28;20437;-75
2023/06/27 02:29:11;;;;;;;0.70;0.60;;;;;;;;;;5045003;28;20530;-75
2023/06/27 02:31:38;;;;;;;0.80;0.70;;;;;;;;;;5047189;28;20437;-76
2023/06/27 02:34:06;;;;;;;0.70;0.70;;;;;;;;;;5053177;28;20868;-76
2023/06/27 02:36:33;;;;;;;0.70;0.70;;;;;;;;;;5033173;28;20447;-75
2023/06/27 02:38:59;;;;;;;0.80;0.70;;;;;;;;;;5049028;28;21023;-74
2023/06/27 02:41:26;;;;;;;1.10;1.00;;;;;;;;;;5047012;28;20467;-74
2023/06/27 02:43:53;;;;;;;1.50;1.40;;;;;;;;;;5050304;28;20453;-75
2023/06/27 02:46:20;;;;;;;0.80;0.70;;;;;;;;;;5042496;28;20476;-75
2023/06/27 02:48:46;;;;;;;0.90;0.90;;;;;;;;;;5025951;28;20448;-75
2023/06/27 02:51:14;;;;;;;0.70;0.60;;;;;;;;;;5045617;28;20468;-76
2023/06/27 02:53:41;;;;;;;0.70;0.70;;;;;;;;;;5043864;28;20487;-75
2023/06/27 02:56:07;;;;;;;0.80;0.70;;;;;;;;;;5049599;28;20450;-75
2023/06/27 02:58:36;;;;;;;0.70;0.60;;;;;;;;;;5035932;28;20471;-74
2023/06/27 03:01:06;;;;;;;0.80;0.80;;;;;;;;;;5049480;28;20434;-75
2023/06/27 03:03:36;;;;;;;0.70;0.60;;;;;;;;;;5047146;28;20508;-75
2023/06/27 03:06:08;;;;;;;0.80;0.80;;;;;;;;;;5031307;28;20455;-75
2023/06/27 03:08:40;;;;;;;0.70;0.70;;;;;;;;;;5044136;28;20533;-75
2023/06/27 03:11:07;;;;;;;0.90;0.90;;;;;;;;;;5032657;28;20453;-76
2023/06/27 03:13:34;;;;;;;0.73;0.70;;;;;;;;;;5041255;28;20447;-76
2023/06/27 03:16:02;;;;;;;0.80;0.80;;;;;;;;;;5044100;28;20462;-75
2023/06/27 03:18:29;;;;;;;0.87;0.77;;;;;;;;;;5047845;28;20889;-75
2023/06/27 03:20:57;;;;;;;0.70;0.60;;;;;;;;;;5046877;28;20463;-75
2023/06/27 03:23:24;;;;;;;0.70;0.70;;;;;;;;;;5046438;28;20539;-75
2023/06/27 03:25:55;;;;;;;0.73;0.70;;;;;;;;;;5042330;28;20469;-75
2023/06/27 03:28:21;;;;;;;0.70;0.60;;;;;;;;;;5044376;28;20437;-75
2023/06/27 03:30:53;;;;;;;0.70;0.70;;;;;;;;;;5046651;28;20457;-76
2023/06/27 03:33:21;;;;;;;0.80;0.70;;;;;;;;;;5048937;28;20436;-75
2023/06/27 03:35:49;;;;;;;0.80;0.70;;;;;;;;;;5046100;28;20990;-77
2023/06/27 03:38:16;;;;;;;0.80;0.80;;;;;;;;;;5037090;28;20479;-75
2023/06/27 03:40:43;;;;;;;0.80;0.80;;;;;;;;;;5050974;28;20641;-75
2023/06/27 03:43:12;;;;;;;0.80;0.80;;;;;;;;;;5043213;28;20530;-76
2023/06/27 03:45:40;;;;;;;0.80;0.73;;;;;;;;;;5037699;28;20451;-75
2023/06/27 03:48:07;;;;;;;0.73;0.70;;;;;;;;;;5044682;28;20540;-75
2023/06/27 03:50:36;;;;;;;0.80;0.70;;;;;;;;;;5049507;28;20518;-76
2023/06/27 03:53:04;;;;;;;0.80;0.70;;;;;;;;;;5057101;28;20522;-76
2023/06/27 03:55:33;;;;;;;0.90;0.90;;;;;;;;;;5044152;28;20455;-75
2023/06/27 03:58:01;;;;;;;0.70;0.60;;;;;;;;;;5044510;28;20473;-75
2023/06/27 04:00:29;;;;;;;1.10;1.00;;;;;;;;;;5044863;28;21235;-75
2023/06/27 04:02:56;;;;;;;0.70;0.60;;;;;;;;;;5048606;28;20462;-75
2023/06/27 04:05:23;;;;;;;0.70;0.60;;;;;;;;;;5042218;28;20444;-78
2023/06/27 04:07:49;;;;;;;0.70;0.60;;;;;;;;;;5047766;28;20500;-75
2023/06/27 04:10:18;;;;;;;0.70;0.60;;;;;;;;;;5046243;28;20483;-75
2023/06/27 04:12:45;;;;;;;1.17;1.07;;;;;;;;;;5026907;28;20443;-75
2023/06/27 04:15:11;;;;;;;0.70;0.60;;;;;;;;;;5040518;28;20452;-75
2023/06/27 04:17:40;;;;;;;0.70;0.70;;;;;;;;;;5050368;28;20514;-75
2023/06/27 04:20:07;;;;;;;0.80;0.70;;;;;;;;;;5045190;28;20496;-75
2023/06/27 04:22:35;;;;;;;4.63;1.47;;;;;;;;;;5047315;28;20542;-75
2023/06/27 04:25:02;;;;;;;0.70;0.70;;;;;;;;;;5047091;28;20473;-76
2023/06/27 04:27:29;;;;;;;2.63;0.97;;;;;;;;;;5045947;28;20455;-75
2023/06/27 04:29:57;;;;;;;0.70;0.60;;;;;;;;;;5047327;28;20491;-74
2023/06/27 04:32:23;;;;;;;0.73;0.70;;;;;;;;;;5039591;28;20918;-75
2023/06/27 04:34:51;;;;;;;0.70;0.60;;;;;;;;;;5042006;28;20462;-78
2023/06/27 04:37:23;;;;;;;0.70;0.63;;;;;;;;;;5044705;28;20499;-76
2023/06/27 04:39:49;;;;;;;0.73;0.70;;;;;;;;;;5040372;28;20430;-75
2023/06/27 04:42:16;;;;;;;0.70;0.60;;;;;;;;;;5049834;28;20449;-76
2023/06/27 04:44:43;;;;;;;0.70;0.70;;;;;;;;;;5033914;28;20787;-77
2023/06/27 04:47:09;;;;;;;0.70;0.70;;;;;;;;;;5050129;28;20884;-76
2023/06/27 04:49:36;;;;;;;1.20;1.10;;;;;;;;;;5041836;28;20455;-75
2023/06/27 04:52:04;;;;;;;0.70;0.60;;;;;;;;;;5055235;28;20461;-76
2023/06/27 04:54:31;;;;;;;0.70;0.70;;;;;;;;;;5071111;28;20449;-78
2023/06/27 04:56:59;;;;;;;0.70;0.70;;;;;;;;;;5058067;28;20470;-75
2023/06/27 04:59:38;;;;;;;0.70;0.70;;;;;;;;;;5051355;28;20498;-76
2023/06/27 05:02:06;;;;;;;0.70;0.70;;;;;;;;;;5055760;28;20483;-77
2023/06/27 05:04:32;;;;;;;0.70;0.60;;;;;;;;;;5051607;28;20896;-76
2023/06/27 05:06:59;;;;;;;0.73;0.70;;;;;;;;;;5053230;28;20510;-73
2023/06/27 05:09:27;;;;;;;0.70;0.70;;;;;;;;;;5046778;28;20526;-76
2023/06/27 05:11:54;;;;;;;0.70;0.60;;;;;;;;;;5044705;28;20989;-76
2023/06/27 05:14:20;;;;;;;0.70;0.60;;;;;;;;;;5045903;28;20447;-76
2023/06/27 05:16:48;;;;;;;0.70;0.70;;;;;;;;;;5048577;28;20487;-75
2023/06/27 05:19:15;;;;;;;0.80;0.80;;;;;;;;;;5048960;28;20498;-76
2023/06/27 05:21:41;;;;;;;0.70;0.70;;;;;;;;;;5032211;28;20451;-75
2023/06/27 05:24:08;;;;;;;0.80;0.77;;;;;;;;;;5046306;28;20473;-77
2023/06/27 05:26:37;;;;;;;0.70;0.70;;;;;;;;;;5048797;28;20442;-76
2023/06/27 05:29:04;;;;;;;1.47;1.30;;;;;;;;;;5054862;28;20795;-75
2023/06/27 05:31:31;;;;;;;0.80;0.70;;;;;;;;;;5035489;28;20451;-75
2023/06/27 05:33:58;;;;;;;0.70;0.70;;;;;;;;;;5061511;28;20456;-75
2023/06/27 05:36:29;;;;;;;0.80;0.70;;;;;;;;;;5049392;28;20470;-75
2023/06/27 05:38:56;;;;;;;1.43;1.00;;;;;;;;;;5056093;28;20470;-78
2023/06/27 05:41:23;;;;;;;0.70;0.60;;;;;;;;;;5042700;28;20890;-78
2023/06/27 05:43:51;;;;;;;0.90;0.90;;;;;;;;;;5053455;28;20442;-76
2023/06/27 05:46:18;;;;;;;0.70;0.60;;;;;;;;;;5052827;28;20531;-76
2023/06/27 05:48:44;;;;;;;0.80;0.70;;;;;;;;;;5049411;28;20460;-75
2023/06/27 05:51:11;;;;;;;0.70;0.60;;;;;;;;;;5054498;28;20502;-75
2023/06/27 05:53:39;;;;;;;0.70;0.70;;;;;;;;;;5053318;28;20484;-76
2023/06/27 05:56:06;;;;;;;0.70;0.70;;;;;;;;;;5062757;28;20802;-77
2023/06/27 05:58:34;;;;;;;0.77;0.70;;;;;;;;;;5061032;28;20466;-76
2023/06/27 06:01:02;;;;;;;0.80;0.73;;;;;;;;;;5058875;28;20474;-76
2023/06/27 06:03:32;;;;;;;0.70;0.60;;;;;;;;;;5057353;28;20779;-78
2023/06/27 06:05:59;;;;;;;0.70;0.60;;;;;;;;;;5049560;28;20437;-75
2023/06/27 06:08:26;;;;;;;0.70;0.60;;;;;;;;;;5064158;28;20475;-76
2023/06/27 06:10:53;;;;;;;0.80;0.70;;;;;;;;;;5049931;28;20458;-76
2023/06/27 06:13:20;;;;;;;0.80;0.80;;;;;;;;;;5056092;28;20437;-76
2023/06/27 06:15:46;;;;;;;1.03;1.00;;;;;;;;;;5067461;28;20452;-76
2023/06/27 06:18:15;;;;;;;1.80;1.70;;;;;;;;;;5055504;28;20470;-76
2023/06/27 06:20:44;;;;;;;0.80;0.80;;;;;;;;;;5046721;28;20430;-76
2023/06/27 06:23:11;;;;;;;0.80;0.80;;;;;;;;;;5051865;28;20526;-77
2023/06/27 06:25:37;;;;;;;0.70;0.63;;;;;;;;;;5049765;28;20433;-76
2023/06/27 06:28:04;;;;;;;0.70;0.60;;;;;;;;;;5045709;28;20448;-75
2023/06/27 06:30:31;;;;;;;0.80;0.80;;;;;;;;;;5055946;28;20512;-76
2023/06/27 06:32:58;;;;;;;0.70;0.70;;;;;;;;;;5049900;28;20465;-76
2023/06/27 06:35:26;;;;;;;0.80;0.70;;;;;;;;;;5058771;28;20454;-75
2023/06/27 06:37:53;;;;;;;0.80;0.80;;;;;;;;;;5046988;28;20503;-76
2023/06/27 06:40:21;;;;;;;1.20;0.93;;;;;;;;;;5053708;28;20536;-75
2023/06/27 06:42:48;;;;;;;0.80;0.80;;;;;;;;;;5057148;28;21387;-74
2023/06/27 06:45:16;;;;;;;0.80;0.70;;;;;;;;;;5046650;28;20432;-77
2023/06/27 06:47:43;;;;;;;0.80;0.70;;;;;;;;;;5036096;28;20498;-74
2023/06/27 06:50:10;;;;;;;0.80;0.70;;;;;;;;;;5044924;28;20983;-75
2023/06/27 06:52:38;;;;;;;0.80;0.70;;;;;;;;;;5046453;28;20503;-76
2023/06/27 06:55:05;;;;;;;0.80;0.73;;;;;;;;;;5043857;28;20439;-75
2023/06/27 06:57:32;;;;;;;0.70;0.70;;;;;;;;;;5045149;28;20439;-76
2023/06/27 06:59:59;;;;;;;0.87;0.80;;;;;;;;;;5052949;28;20519;-74
2023/06/27 07:02:25;;;;;;;0.80;0.70;;;;;;;;;;5033930;28;20463;-77
2023/06/27 07:04:52;;;;;;;0.80;0.70;;;;;;;;;;5051882;28;20756;-78
2023/06/27 07:07:19;;;;;;;0.80;0.70;;;;;;;;;;5051032;28;20453;-75
2023/06/27 07:09:48;;;;;;;0.80;0.80;;;;;;;;;;5041607;28;20952;-78
2023/06/27 07:12:15;;;;;;;0.80;0.80;;;;;;;;;;5049443;28;20497;-75
2023/06/27 07:14:42;;;;;;;0.97;0.97;;;;;;;;;;5045166;28;20440;-73
2023/06/27 07:17:10;;;;;;;0.80;0.80;;;;;;;;;;5041846;28;20494;-75
2023/06/27 07:19:37;;;;;;;0.80;0.70;;;;;;;;;;5044282;28;20553;-75
2023/06/27 07:22:04;;;;;;;0.70;0.60;;;;;;;;;;5048576;28;21069;-74
2023/06/27 07:24:30;;;;;;;0.80;0.73;;;;;;;;;;5040727;28;20437;-75
2023/06/27 07:26:58;;;;;;;0.80;0.80;;;;;;;;;;5043156;28;20528;-75
2023/06/27 07:29:27;;;;;;;0.80;0.70;;;;;;;;;;5042930;28;20432;-76
2023/06/27 07:31:54;;;;;;;0.90;0.90;;;;;;;;;;5047145;28;20997;-75
2023/06/27 07:34:21;;;;;;;0.80;0.80;;;;;;;;;;5053625;28;20472;-75
2023/06/27 07:36:48;;;;;;;0.80;0.80;;;;;;;;;;5039946;28;20484;-75
2023/06/27 07:39:15;;;;;;;0.90;0.90;;;;;;;;;;5046381;28;20471;-77
2023/06/27 07:41:42;;;;;;;0.80;0.70;;;;;;;;;;5050368;28;20480;-75
2023/06/27 07:44:10;;;;;;;0.80;0.70;;;;;;;;;;5049628;28;20467;-77
2023/06/27 07:46:37;;;;;;;0.80;0.80;;;;;;;;;;5042639;28;20467;-75
2023/06/27 07:49:04;;;;;;;0.80;0.80;;;;;;;;;;5049944;28;20463;-74
2023/06/27 07:51:31;;;;;;;0.80;0.73;;;;;;;;;;5053278;28;20475;-74
2023/06/27 07:54:00;;;;;;;1.00;0.90;;;;;;;;;;5052216;28;20532;-74
2023/06/27 07:56:27;;;;;;;0.80;0.80;;;;;;;;;;5048602;28;20698;-76
2023/06/27 07:58:54;;;;;;;0.80;0.73;;;;;;;;;;5050933;28;20468;-76
2023/06/27 08:01:22;;;;;;;0.80;0.80;;;;;;;;;;5044820;28;20445;-75
2023/06/27 08:03:49;;;;;;;0.93;0.93;;;;;;;;;;5041974;28;20475;-77
2023/06/27 08:06:17;;;;;;;0.70;0.60;;;;;;;;;;5043545;28;20455;-76
2023/06/27 08:08:44;;;;;;;0.80;0.70;;;;;;;;;;5029793;28;20483;-75
2023/06/27 08:11:10;;;;;;;0.80;0.80;;;;;;;;;;5043327;28;20504;-72
2023/06/27 08:13:41;;;;;;;0.93;0.90;;;;;;;;;;5056760;28;20969;-77
2023/06/27 08:16:08;;;;;;;0.80;0.80;;;;;;;;;;5049460;28;20449;-78
2023/06/27 08:18:36;;;;;;;0.80;0.80;;;;;;;;;;5051720;28;20460;-78
2023/06/27 08:21:06;;;;;;;2.00;1.33;;;;;;;;;;5063418;28;20481;-75
2023/06/27 08:23:34;;;;;;;0.80;0.60;;;;;;;;;;5038881;28;20468;-76
2023/06/27 08:26:01;;;;;;;0.77;0.60;;;;;;;;;;5052291;28;20707;-76
2023/06/27 08:28:28;;;;;;;0.80;0.70;;;;;;;;;;5055948;28;20436;-77
2023/06/27 08:30:55;;;;;;;0.90;0.80;;;;;;;;;;5045035;28;20450;-78
2023/06/27 08:33:25;;;;;;;0.80;0.70;;;;;;;;;;5048871;28;20447;-77
2023/06/27 08:35:53;;;;;;;0.80;0.73;;;;;;;;;;5049570;28;20418;-77
2023/06/27 08:38:22;;;;;;;0.73;0.67;;;;;;;;;;5048161;28;20484;-77
2023/06/27 08:40:53;;;;;;;0.80;0.80;;;;;;;;;;5030395;28;20491;-79
2023/06/27 08:43:20;;;;;;;0.70;0.60;;;;;;;;;;5051875;28;20465;-79
2023/06/27 08:45:48;;;;;;;0.80;0.70;;;;;;;;;;5052265;28;20449;-76
2023/06/27 08:48:15;;;;;;;0.80;0.80;;;;;;;;;;5056808;28;20419;-76
2023/06/27 08:50:44;;;;;;;0.80;0.70;;;;;;;;;;5051537;28;20423;-79
2023/06/27 08:53:14;;;;;;;0.80;0.80;;;;;;;;;;5046658;28;20441;-78
2023/06/27 08:55:42;;;;;;;1.67;1.43;;;;;;;;;;5056624;28;20426;-77
2023/06/27 08:58:11;;;;;;;1.30;1.20;;;;;;;;;;5052703;28;20419;-79
2023/06/27 09:00:39;;;;;;;0.90;0.80;;;;;;;;;;5046842;28;20541;-78
2023/06/27 09:03:07;;;;;;;0.80;0.80;;;;;;;;;;5057369;28;20416;-77
2023/06/27 09:05:35;;;;;;;0.80;0.80;;;;;;;;;;5052757;28;20729;-78
2023/06/27 09:08:06;;;;;;;0.77;0.70;;;;;;;;;;5053861;28;20542;-77
2023/06/27 09:10:35;;;;;;;1.27;1.03;;;;;;;;;;5055905;28;20975;-75
2023/06/27 09:13:03;;;;;;;0.80;0.80;;;;;;;;;;5054566;28;20497;-73
2023/06/27 09:15:30;;;;;;;0.77;0.70;;;;;;;;;;5057578;28;20520;-79
2023/06/27 09:17:58;;;;;;;0.80;0.80;;;;;;;;;;5048111;28;20444;-77
2023/06/27 09:20:27;;;;;;;0.80;0.80;;;;;;;;;;5046151;28;20447;-78
2023/06/27 09:22:55;;;;;;;0.70;0.70;;;;;;;;;;5042483;28;20459;-77
2023/06/27 09:25:23;;;;;;;0.70;0.60;;;;;;;;;;5043311;28;20437;-78
2023/06/27 09:27:53;;;;;;;0.80;0.70;;;;;;;;;;5047555;28;20513;-78
2023/06/27 09:30:23;;;;;;;0.80;0.70;;;;;;;;;;5043000;28;20515;-80
2023/06/27 09:32:54;;;;;;;0.80;0.70;;;;;;;;;;5050318;28;20406;-79
2023/06/27 09:35:23;;;;;;;1.10;1.00;;;;;;;;;;5035142;28;20449;-76
2023/06/27 09:38:12;;;;;;;0.70;0.70;;;;;;;;;;5045893;28;20453;-77
2023/06/27 09:40:42;;;;;;;0.80;0.80;;;;;;;;;;5047608;28;20500;-78
2023/06/27 09:43:13;;;;;;;0.80;0.70;;;;;;;;;;5048232;28;20452;-79
2023/06/27 09:45:40;;;;;;;0.80;0.73;;;;;;;;;;5047336;28;20912;-77
2023/06/27 09:48:08;;;;;;;0.80;0.70;;;;;;;;;;5043600;28;20412;-78
2023/06/27 09:50:37;;;;;;;0.80;0.70;;;;;;;;;;5035038;28;20500;-76
2023/06/27 09:53:04;;;;;;;0.73;0.67;;;;;;;;;;5045354;28;20479;-75
2023/06/27 09:55:31;;;;;;;0.80;0.73;;;;;;;;;;5043224;28;20419;-76
2023/06/27 09:57:58;;;;;;;0.80;0.80;;;;;;;;;;5044824;28;20912;-78
2023/06/27 10:00:26;;;;;;;0.70;0.60;;;;;;;;;;5046185;28;20475;-78
2023/06/27 10:02:55;;;;;;;0.80;0.70;;;;;;;;;;5045998;28;20403;-75
2023/06/27 10:05:21;;;;;;;0.70;0.60;;;;;;;;;;5042550;28;20413;-76
2023/06/27 10:07:49;;;;;;;1.37;1.07;;;;;;;;;;5049669;28;20519;-78
2023/06/27 10:10:20;;;;;;;0.87;0.87;;;;;;;;;;5041963;28;20793;-76
2023/06/27 10:12:47;;;;;;;0.70;0.70;;;;;;;;;;5041842;28;20503;-76
2023/06/27 10:15:13;;;;;;;0.80;0.70;;;;;;;;;;5028665;28;20534;-75
2023/06/27 10:17:42;;;;;;;0.80;0.70;;;;;;;;;;5045741;28;20463;-74
2023/06/27 10:20:11;;;;;;;0.70;0.70;;;;;;;;;;5042644;28;20467;-78
2023/06/27 10:22:40;;;;;;;1.10;1.00;;;;;;;;;;5046126;28;20484;-75
2023/06/27 10:25:10;;;;;;;0.70;0.60;;;;;;;;;;5047396;28;20515;-77
2023/06/27 10:27:42;;;;;;;0.80;0.60;;;;;;;;;;5041126;28;20451;-77
2023/06/27 10:30:22;;;;;;;0.70;0.60;;;;;;;;;;5044711;28;20829;-77
2023/06/27 10:32:50;;;;;;;1.23;1.13;;;;;;;;;;5040412;28;20515;-79
2023/06/27 10:35:25;;;;;;;1.53;1.43;;;;;;;;;;5038863;28;20431;-77
2023/06/27 10:38:05;;;;;;;0.80;0.80;;;;;;;;;;5044145;28;20505;-75
2023/06/27 10:40:48;;;;;;;0.87;0.73;;;;;;;;;;5050216;28;20892;-75
2023/06/27 10:43:30;;;;;;;0.70;0.67;;;;;;;;;;5031160;28;20546;-76
2023/06/27 10:46:03;;;;;;;1.20;1.13;;;;;;;;;;5047164;28;20440;-76
2023/06/27 10:48:32;;;;;;;0.70;0.70;;;;;;;;;;5041346;28;20435;-76
2023/06/27 10:51:08;;;;;;;0.80;0.70;;;;;;;;;;5051300;28;20475;-77
2023/06/27 10:53:39;;;;;;;0.80;0.70;;;;;;;;;;5041825;28;20464;-76
2023/06/27 10:56:16;;;;;;;0.80;0.73;;;;;;;;;;5047393;28;20425;-77
2023/06/27 10:58:44;;;;;;;0.83;0.83;;;;;;;;;;5044476;28;20428;-76
2023/06/27 11:01:14;;;;;;;0.80;0.70;;;;;;;;;;5037815;28;20479;-77
2023/06/27 11:03:45;;;;;;;0.80;0.70;;;;;;;;;;5048624;28;20444;-78
2023/06/27 11:06:14;;;;;;;0.80;0.70;;;;;;;;;;5042301;28;20548;-76
2023/06/27 11:08:41;;;;;;;0.80;0.77;;;;;;;;;;5044742;28;20491;-77
2023/06/27 11:11:08;;;;;;;0.80;0.80;;;;;;;;;;5042517;28;20531;-76
2023/06/27 11:13:35;;;;;;;1.73;1.63;;;;;;;;;;5048466;28;20441;-78
2023/06/27 11:16:02;;;;;;;0.70;0.70;;;;;;;;;;5043037;28;20468;-78
2023/06/27 11:18:30;;;;;;;0.70;0.60;;;;;;;;;;5047373;28;20453;-76
2023/06/27 11:20:59;;;;;;;0.80;0.70;;;;;;;;;;5051435;28;20484;-75
2023/06/27 11:23:26;;;;;;;0.80;0.70;;;;;;;;;;5050927;28;20480;-77
2023/06/27 11:25:53;;;;;;;0.80;0.80;;;;;;;;;;5044782;28;20796;-73
2023/06/27 11:28:21;;;;;;;0.80;0.67;;;;;;;;;;5044301;28;20433;-76
2023/06/27 11:30:49;;;;;;;0.80;0.73;;;;;;;;;;5042110;28;20511;-75
2023/06/27 11:33:17;;;;;;;0.80;0.70;;;;;;;;;;5049411;28;20463;-75
2023/06/27 11:35:44;;;;;;;0.70;0.60;;;;;;;;;;5031531;28;20845;-76
2023/06/27 11:38:13;;;;;;;0.70;0.60;;;;;;;;;;5051034;28;20461;-75
2023/06/27 11:40:46;;;;;;;0.97;0.80;;;;;;;;;;5050125;28;20467;-76
2023/06/27 11:43:15;;;;;;;1.47;1.10;;;;;;;;;;5048948;28;20441;-76
2023/06/27 11:45:44;;;;;;;0.70;0.60;;;;;;;;;;5044856;28;20435;-75
2023/06/27 11:48:11;;;;;;;0.70;0.60;;;;;;;;;;5044105;28;20452;-76
2023/06/27 11:50:52;;;;;;;0.80;0.70;;;;;;;;;;5044836;28;20454;-75
2023/06/27 11:53:23;;;;;;;0.70;0.60;;;;;;;;;;5044586;28;20453;-75
2023/06/27 11:55:52;;;;;;;0.70;0.60;;;;;;;;;;5040117;28;20445;-77
2023/06/27 11:58:39;;;;;;;0.80;0.67;;;;;;;;;;5042265;28;20845;-75
2023/06/27 12:01:12;;;;;;;0.70;0.60;;;;;;;;;;5052640;28;20484;-75
2023/06/27 12:03:45;;;;;;;0.80;0.80;;;;;;;;;;5046233;28;20429;-76
2023/06/27 12:06:23;;;;;;;0.90;0.80;;;;;;;;;;5039168;28;20444;-77
2023/06/27 12:08:53;;;;;;;1.10;0.80;;;;;;;;;;5052335;28;20479;-77
2023/06/27 12:11:24;;;;;;;0.70;0.50;;;;;;;;;;5041873;28;20433;-74
2023/06/27 12:13:51;;;;;;;0.70;0.60;;;;;;;;;;5044206;28;20448;-73
2023/06/27 12:16:23;;;;;;;0.77;0.60;;;;;;;;;;5047361;28;20451;-75
2023/06/27 12:18:50;;;;;;;0.70;0.60;;;;;;;;;;5049390;28;20530;-75
2023/06/27 12:21:17;;;;;;;0.90;0.70;;;;;;;;;;5050597;28;20484;-74
2023/06/27 12:23:44;;;;;;;1.53;1.10;;;;;;;;;;5039479;28;20497;-75
2023/06/27 12:26:14;;;;;;;0.90;0.80;;;;;;;;;;5039360;28;20956;-75
2023/06/27 12:28:53;;;;;;;0.70;0.50;;;;;;;;;;5040970;28;20444;-76
2023/06/27 12:31:22;;;;;;;2.13;1.93;;;;;;;;;;5049906;28;20440;-76
2023/06/27 12:33:51;;;;;;;0.70;0.60;;;;;;;;;;5039581;28;20447;-75
2023/06/27 12:36:18;;;;;;;1.20;1.10;;;;;;;;;;5041918;28;20445;-76
2023/06/27 12:38:45;;;;;;;1.37;1.27;;;;;;;;;;5034854;28;20500;-75
2023/06/27 12:41:13;;;;;;;1.50;1.23;;;;;;;;;;5031972;28;20481;-75
2023/06/27 12:43:40;;;;;;;1.17;1.07;;;;;;;;;;5043154;28;20431;-75
2023/06/27 12:46:07;;;;;;;0.90;0.80;;;;;;;;;;5049951;28;20446;-75
2023/06/27 12:48:34;;;;;;;0.80;0.70;;;;;;;;;;5046773;28;20468;-77
2023/06/27 12:51:02;;;;;;;1.50;1.40;;;;;;;;;;5042899;28;20476;-74
2023/06/27 12:53:31;;;;;;;0.70;0.60;;;;;;;;;;5050524;28;20444;-75
2023/06/27 12:56:04;;;;;;;0.70;0.60;;;;;;;;;;5043004;28;20475;-75
2023/06/27 12:58:32;;;;;;;0.70;0.60;;;;;;;;;;5051348;28;20515;-75
2023/06/27 13:01:02;;;;;;;0.80;0.70;;;;;;;;;;5050913;28;20464;-75
2023/06/27 13:03:30;;;;;;;1.13;1.00;;;;;;;;;;5040722;28;20567;-75
2023/06/27 13:05:57;;;;;;;0.80;0.63;;;;;;;;;;5051488;28;20452;-77
2023/06/27 13:08:24;;;;;;;0.80;0.70;;;;;;;;;;5030001;28;20471;-77
2023/06/27 13:10:51;;;;;;;0.70;0.60;;;;;;;;;;5043264;28;20522;-78
2023/06/27 13:13:17;;;;;;;1.00;0.87;;;;;;;;;;5045255;28;20472;-79
2023/06/27 13:15:47;;;;;;;0.80;0.70;;;;;;;;;;5046748;28;20443;-80
2023/06/27 13:18:34;;;;;;;0.80;0.80;;;;;;;;;;5045785;28;20432;-79
2023/06/27 13:21:01;;;;;;;0.80;0.80;;;;;;;;;;5047092;28;20482;-80
2023/06/27 13:23:28;;;;;;;0.90;0.80;;;;;;;;;;5038239;28;20518;-82
2023/06/27 13:25:55;;;;;;;0.80;0.70;;;;;;;;;;5048790;28;20443;-80
2023/06/27 13:28:22;;;;;;;1.10;1.00;;;;;;;;;;5048948;28;20475;-80
2023/06/27 13:30:50;;;;;;;0.80;0.80;;;;;;;;;;5049654;28;20427;-82
2023/06/27 13:33:17;;;;;;;0.80;0.70;;;;;;;;;;5051331;28;20574;-81
2023/06/27 13:35:43;;;;;;;0.80;0.80;;;;;;;;;;5051968;28;20497;-80
2023/06/27 13:38:11;;;;;;;0.80;0.70;;;;;;;;;;5051896;28;20460;-82
2023/06/27 13:40:38;;;;;;;0.80;0.80;;;;;;;;;;5047231;28;20476;-80
2023/06/27 13:43:05;;;;;;;0.83;0.83;;;;;;;;;;5046241;28;21008;-79
2023/06/27 13:45:32;;;;;;;0.80;0.73;;;;;;;;;;5024413;28;20509;-81
2023/06/27 13:48:00;;;;;;;0.70;0.60;;;;;;;;;;5033944;28;20463;-81
2023/06/27 13:50:27;;;;;;;0.70;0.60;;;;;;;;;;5036446;28;20539;-81
2023/06/27 13:52:56;;;;;;;0.80;0.77;;;;;;;;;;5040888;28;20483;-80
2023/06/27 13:55:23;;;;;;;0.70;0.60;;;;;;;;;;5027550;28;20452;-81
2023/06/27 13:57:52;;;;;;;0.80;0.63;;;;;;;;;;5035699;28;20456;-81
2023/06/27 14:00:19;;;;;;;0.70;0.50;;;;;;;;;;5042974;28;20502;-80
2023/06/27 14:02:46;;;;;;;0.70;0.60;;;;;;;;;;5048554;28;20440;-81
2023/06/27 14:05:32;;;;;;;0.70;0.60;;;;;;;;;;5055864;28;20441;-78
2023/06/27 14:08:00;;;;;;;0.77;0.67;;;;;;;;;;5049387;28;20500;-80
2023/06/27 14:10:26;;;;;;;0.70;0.60;;;;;;;;;;5048178;28;20471;-80
2023/06/27 14:12:56;;;;;;;1.10;1.00;;;;;;;;;;5040755;28;20478;-81
2023/06/27 14:15:23;;;;;;;1.00;0.90;;;;;;;;;;5053675;28;20432;-79
2023/06/27 14:17:50;;;;;;;0.77;0.57;;;;;;;;;;5048717;28;20455;-80
2023/06/27 14:20:16;;;;;;;0.77;0.60;;;;;;;;;;5055595;28;20812;-80
2023/06/27 14:22:44;;;;;;;0.80;0.70;;;;;;;;;;5051541;28;20496;-82
2023/06/27 14:25:11;;;;;;;0.90;0.80;;;;;;;;;;5042846;28;20445;-79
2023/06/27 14:27:37;;;;;;;0.80;0.80;;;;;;;;;;5044798;28;20479;-81
2023/06/27 14:30:06;;;;;;;0.80;0.70;;;;;;;;;;5043075;28;20432;-79
2023/06/27 14:32:32;;;;;;;0.80;0.70;;;;;;;;;;5034896;28;20444;-81
2023/06/27 14:35:00;;;;;;;0.80;0.70;;;;;;;;;;5042580;28;20460;-80
2023/06/27 14:37:26;;;;;;;0.80;0.70;;;;;;;;;;5034137;28;20465;-81
2023/06/27 14:39:54;;;;;;;0.70;0.60;;;;;;;;;;5027579;28;20483;-81
2023/06/27 14:42:21;;;;;;;0.83;0.80;;;;;;;;;;5043672;28;20912;-80
2023/06/27 14:44:48;;;;;;;0.80;0.80;;;;;;;;;;5047733;28;20906;-81
2023/06/27 14:47:14;;;;;;;0.80;0.70;;;;;;;;;;5046827;28;20447;-80
2023/06/27 14:49:41;;;;;;;0.80;0.70;;;;;;;;;;5023646;28;20459;-80